Time;durP1;ratioP1;P1;durP2;ratioP2;P2;SDS_P1;SDS_P2;PMS_P1;PMS_P2;Temp;Humidity;BMP_temperature;BMP_pressure;BME280_temperature;BME280_humidity;BME280_pressure;Samples;Min_cycle;Max_cycle;Signal;HPM_P1;HPM_P2
2023/12/25 00:02:17;;;;;;;2.15;2.05;;;;;;;;;;5058159;28;20021;-22
2023/12/25 00:04:43;;;;;;;2.92;1.95;;;;;;;;;;5058133;28;20438;-23
2023/12/25 00:07:10;;;;;;;1.92;1.83;;;;;;;;;;5058100;28;20104;-23
2023/12/25 00:09:37;;;;;;;1.58;1.48;;;;;;;;;;5058242;28;20021;-19
2023/12/25 00:12:03;;;;;;;1.65;1.55;;;;;;;;;;5058210;28;20082;-19
2023/12/25 00:14:29;;;;;;;1.95;1.85;;;;;;;;;;5057990;28;20028;-21
2023/12/25 00:16:55;;;;;;;1.83;1.73;;;;;;;;;;5056970;28;20021;-20
2023/12/25 00:19:21;;;;;;;2.72;2.53;;;;;;;;;;5057901;28;20048;-18
2023/12/25 00:21:48;;;;;;;1.83;1.73;;;;;;;;;;5058005;28;20364;-20
2023/12/25 00:24:14;;;;;;;1.90;1.80;;;;;;;;;;5057825;28;20025;-22
2023/12/25 00:26:40;;;;;;;1.98;1.88;;;;;;;;;;5058313;28;20032;-21
2023/12/25 00:29:07;;;;;;;2.00;1.90;;;;;;;;;;5057994;28;20033;-19
2023/12/25 00:31:33;;;;;;;1.63;1.52;;;;;;;;;;5057633;28;20509;-18
2023/12/25 00:33:59;;;;;;;1.63;1.52;;;;;;;;;;5057506;28;20135;-19
2023/12/25 00:36:25;;;;;;;1.83;1.73;;;;;;;;;;5057801;28;20040;-20
2023/12/25 00:38:52;;;;;;;1.70;1.60;;;;;;;;;;5057799;28;20033;-21
2023/12/25 00:41:18;;;;;;;3.35;1.95;;;;;;;;;;5057993;28;20032;-20
2023/12/25 00:43:44;;;;;;;2.30;1.73;;;;;;;;;;5057292;28;20467;-18
2023/12/25 00:46:10;;;;;;;2.38;2.28;;;;;;;;;;5057306;28;20031;-20
2023/12/25 00:48:37;;;;;;;2.03;1.83;;;;;;;;;;5057855;28;20448;-18
2023/12/25 00:51:03;;;;;;;2.25;1.90;;;;;;;;;;5056178;28;20112;-19
2023/12/25 00:53:29;;;;;;;2.08;1.88;;;;;;;;;;5056943;28;20017;-20
2023/12/25 00:55:55;;;;;;;1.67;1.58;;;;;;;;;;5057180;28;20033;-19
2023/12/25 00:58:21;;;;;;;1.60;1.50;;;;;;;;;;5057166;28;20096;-20
2023/12/25 01:00:47;;;;;;;2.80;2.08;;;;;;;;;;5057366;28;20025;-18
2023/12/25 01:03:14;;;;;;;1.50;1.40;;;;;;;;;;5057266;28;20040;-22
2023/12/25 01:05:40;;;;;;;2.15;1.95;;;;;;;;;;5056829;28;20099;-20
2023/12/25 01:08:06;;;;;;;1.67;1.58;;;;;;;;;;5056899;28;20025;-19
2023/12/25 01:10:32;;;;;;;2.08;1.98;;;;;;;;;;5055882;28;20029;-20
2023/12/25 01:12:58;;;;;;;1.98;1.88;;;;;;;;;;5057082;28;20021;-19
2023/12/25 01:15:24;;;;;;;1.98;1.88;;;;;;;;;;5056878;28;20186;-20
2023/12/25 01:17:50;;;;;;;2.42;2.13;;;;;;;;;;5056806;28;20376;-20
2023/12/25 01:20:17;;;;;;;1.73;1.63;;;;;;;;;;5056764;28;20029;-19
2023/12/25 01:22:43;;;;;;;1.95;1.85;;;;;;;;;;5056989;28;20032;-17
2023/12/25 01:25:09;;;;;;;1.83;1.60;;;;;;;;;;5057236;28;20029;-20
2023/12/25 01:27:39;;;;;;;2.13;2.03;;;;;;;;;;5057416;28;20344;-19
2023/12/25 01:30:05;;;;;;;2.13;2.03;;;;;;;;;;5057072;28;20439;-25
2023/12/25 01:32:31;;;;;;;2.08;1.98;;;;;;;;;;5056466;28;20024;-20
2023/12/25 01:34:58;;;;;;;1.90;1.80;;;;;;;;;;5056750;28;20436;-19
2023/12/25 01:37:24;;;;;;;2.25;1.92;;;;;;;;;;5056436;28;20027;-19
2023/12/25 01:39:50;;;;;;;1.90;1.80;;;;;;;;;;5056395;28;20091;-19
2023/12/25 01:42:16;;;;;;;2.20;2.00;;;;;;;;;;5056555;28;20021;-20
2023/12/25 01:44:42;;;;;;;2.10;2.00;;;;;;;;;;5056587;28;20033;-21
2023/12/25 01:47:08;;;;;;;1.70;1.60;;;;;;;;;;5056525;28;20406;-22
2023/12/25 01:49:35;;;;;;;1.60;1.50;;;;;;;;;;5056120;28;20025;-19
2023/12/25 01:52:01;;;;;;;1.80;1.70;;;;;;;;;;5056609;28;20032;-19
2023/12/25 01:54:27;;;;;;;2.03;1.92;;;;;;;;;;5056128;28;20021;-19
2023/12/25 01:56:54;;;;;;;2.10;2.00;;;;;;;;;;5056653;28;20032;-24
2023/12/25 01:59:20;;;;;;;2.05;1.95;;;;;;;;;;5056263;28;20448;-18
2023/12/25 02:01:46;;;;;;;2.13;1.90;;;;;;;;;;5056270;28;20324;-20
2023/12/25 02:04:12;;;;;;;1.70;1.60;;;;;;;;;;5055567;28;20021;-19
2023/12/25 02:06:38;;;;;;;1.80;1.70;;;;;;;;;;5056174;28;20120;-20
2023/12/25 02:09:05;;;;;;;1.80;1.70;;;;;;;;;;5055815;28;20029;-21
2023/12/25 02:11:31;;;;;;;1.70;1.60;;;;;;;;;;5055942;28;20078;-22
2023/12/25 02:13:57;;;;;;;1.77;1.67;;;;;;;;;;5055920;28;20029;-19
2023/12/25 02:16:24;;;;;;;1.80;1.70;;;;;;;;;;5055692;28;20079;-20
2023/12/25 02:18:51;;;;;;;2.17;2.00;;;;;;;;;;5055890;28;20036;-17
2023/12/25 02:21:17;;;;;;;1.80;1.70;;;;;;;;;;5055572;28;20029;-19
2023/12/25 02:23:47;;;;;;;2.50;2.30;;;;;;;;;;5055458;28;20024;-18
2023/12/25 02:26:13;;;;;;;1.95;1.85;;;;;;;;;;5055767;28;20032;-19
2023/12/25 02:28:41;;;;;;;1.80;1.70;;;;;;;;;;5055437;28;20036;-19
2023/12/25 02:31:07;;;;;;;1.90;1.80;;;;;;;;;;5055262;28;20460;-19
2023/12/25 02:33:33;;;;;;;1.98;1.88;;;;;;;;;;5055561;28;20106;-19
2023/12/25 02:35:59;;;;;;;2.65;2.40;;;;;;;;;;5055312;28;20479;-21
2023/12/25 02:38:25;;;;;;;1.75;1.65;;;;;;;;;;5055255;28;20090;-18
2023/12/25 02:40:51;;;;;;;2.28;2.10;;;;;;;;;;5054260;28;20460;-20
2023/12/25 02:43:17;;;;;;;2.00;1.90;;;;;;;;;;5055372;28;20029;-20
2023/12/25 02:45:43;;;;;;;2.42;2.33;;;;;;;;;;5055388;28;20310;-19
2023/12/25 02:48:10;;;;;;;1.98;1.88;;;;;;;;;;5055094;28;20025;-20
2023/12/25 02:50:36;;;;;;;1.90;1.80;;;;;;;;;;5055249;28;20029;-20
2023/12/25 02:53:05;;;;;;;1.95;1.85;;;;;;;;;;5055219;28;20029;-18
2023/12/25 02:55:31;;;;;;;2.03;1.92;;;;;;;;;;5055205;28;20021;-18
2023/12/25 02:57:57;;;;;;;2.00;1.90;;;;;;;;;;5055216;28;20094;-19
2023/12/25 03:00:23;;;;;;;1.95;1.85;;;;;;;;;;5055174;28;20109;-19
2023/12/25 03:02:49;;;;;;;2.03;1.92;;;;;;;;;;5054818;28;20032;-19
2023/12/25 03:05:15;;;;;;;2.03;1.92;;;;;;;;;;5054874;28;20057;-18
2023/12/25 03:07:41;;;;;;;2.05;1.77;;;;;;;;;;5055305;28;20395;-19
2023/12/25 03:10:07;;;;;;;2.40;1.83;;;;;;;;;;5054787;28;20405;-18
2023/12/25 03:12:34;;;;;;;1.88;1.77;;;;;;;;;;5054676;28;20025;-19
2023/12/25 03:15:00;;;;;;;1.73;1.63;;;;;;;;;;5054290;28;20028;-22
2023/12/25 03:17:26;;;;;;;1.67;1.58;;;;;;;;;;5054944;28;20029;-21
2023/12/25 03:19:52;;;;;;;2.10;2.00;;;;;;;;;;5054939;28;20067;-19
2023/12/25 03:22:18;;;;;;;1.70;1.60;;;;;;;;;;5054533;28;20075;-20
2023/12/25 03:24:44;;;;;;;1.80;1.70;;;;;;;;;;5054576;28;20029;-18
2023/12/25 03:27:10;;;;;;;1.77;1.67;;;;;;;;;;5055127;28;20104;-18
2023/12/25 03:29:36;;;;;;;1.80;1.70;;;;;;;;;;5054469;28;20032;-18
2023/12/25 03:32:03;;;;;;;1.60;1.50;;;;;;;;;;5054701;28;20029;-23
2023/12/25 03:34:29;;;;;;;1.95;1.85;;;;;;;;;;5054473;28;20052;-24
2023/12/25 03:36:56;;;;;;;2.08;1.98;;;;;;;;;;5054435;28;20055;-19
2023/12/25 03:39:22;;;;;;;1.73;1.63;;;;;;;;;;5054396;28;20040;-19
2023/12/25 03:41:48;;;;;;;2.08;1.98;;;;;;;;;;5054848;28;20025;-20
2023/12/25 03:44:14;;;;;;;2.08;1.98;;;;;;;;;;5054346;28;20017;-19
2023/12/25 03:46:40;;;;;;;1.88;1.77;;;;;;;;;;5054662;28;20021;-17
2023/12/25 03:49:06;;;;;;;1.98;1.88;;;;;;;;;;5054652;28;20448;-19
2023/12/25 03:51:36;;;;;;;1.58;1.58;;;;;;;;;;5054558;28;20108;-18
2023/12/25 03:54:02;;;;;;;1.98;1.88;;;;;;;;;;5054494;28;20382;-23
2023/12/25 03:56:28;;;;;;;1.90;1.80;;;;;;;;;;5055029;28;20025;-21
2023/12/25 03:58:54;;;;;;;2.00;1.90;;;;;;;;;;5054290;28;20096;-19
2023/12/25 04:01:22;;;;;;;1.90;1.80;;;;;;;;;;5054787;28;20028;-18
2023/12/25 04:03:48;;;;;;;1.73;1.63;;;;;;;;;;5054200;28;20364;-19
2023/12/25 04:06:24;;;;;;;1.90;1.80;;;;;;;;;;5054063;28;20547;-20
2023/12/25 04:08:50;;;;;;;1.67;1.58;;;;;;;;;;5054500;28;20036;-19
2023/12/25 04:11:20;;;;;;;2.08;1.98;;;;;;;;;;5054068;28;20104;-22
2023/12/25 04:13:46;;;;;;;1.70;1.60;;;;;;;;;;5054276;28;20375;-17
2023/12/25 04:16:20;;;;;;;1.80;1.70;;;;;;;;;;5054142;28;20352;-17
2023/12/25 04:18:46;;;;;;;1.52;1.45;;;;;;;;;;5054067;28;20064;-24
2023/12/25 04:21:22;;;;;;;1.75;1.65;;;;;;;;;;5054117;28;20337;-19
2023/12/25 04:23:49;;;;;;;2.13;2.03;;;;;;;;;;5053870;28;20033;-17
2023/12/25 04:26:16;;;;;;;1.85;1.75;;;;;;;;;;5055875;28;20407;-18
2023/12/25 04:28:42;;;;;;;2.33;2.03;;;;;;;;;;5057726;28;20033;-20
2023/12/25 04:31:08;;;;;;;1.77;1.67;;;;;;;;;;5057904;28;20039;-17
2023/12/25 04:33:34;;;;;;;1.80;1.70;;;;;;;;;;5057587;28;20021;-18
2023/12/25 04:36:00;;;;;;;1.75;1.65;;;;;;;;;;5057610;28;20090;-18
2023/12/25 04:38:26;;;;;;;2.00;1.90;;;;;;;;;;5058039;28;20013;-19
2023/12/25 04:40:53;;;;;;;2.33;2.17;;;;;;;;;;5058039;28;20359;-21
2023/12/25 04:43:19;;;;;;;2.17;2.08;;;;;;;;;;5057949;28;20158;-19
2023/12/25 04:45:45;;;;;;;1.90;1.80;;;;;;;;;;5057447;28;20044;-21
2023/12/25 04:48:11;;;;;;;1.88;1.77;;;;;;;;;;5057385;28;20025;-21
2023/12/25 04:50:38;;;;;;;2.17;2.05;;;;;;;;;;5057261;28;20029;-20
2023/12/25 04:53:04;;;;;;;2.28;2.17;;;;;;;;;;5057501;28;20208;-17
2023/12/25 04:55:30;;;;;;;2.20;2.10;;;;;;;;;;5057207;28;20048;-21
2023/12/25 04:57:57;;;;;;;2.13;2.03;;;;;;;;;;5057182;28;20071;-20
2023/12/25 05:00:23;;;;;;;2.25;2.13;;;;;;;;;;5057442;28;20032;-19
2023/12/25 05:02:49;;;;;;;1.70;1.60;;;;;;;;;;5057278;28;20022;-26
2023/12/25 05:05:15;;;;;;;2.17;2.08;;;;;;;;;;5056814;28;20060;-18
2023/12/25 05:07:42;;;;;;;2.25;2.15;;;;;;;;;;5057292;28;20091;-18
2023/12/25 05:10:08;;;;;;;2.17;1.92;;;;;;;;;;5056889;28;20028;-17
2023/12/25 05:12:34;;;;;;;1.90;1.80;;;;;;;;;;5056852;28;20029;-18
2023/12/25 05:15:01;;;;;;;4.53;2.05;;;;;;;;;;5056909;28;20098;-17
2023/12/25 05:17:27;;;;;;;2.17;2.08;;;;;;;;;;5057117;28;20070;-24
2023/12/25 05:19:53;;;;;;;2.40;2.20;;;;;;;;;;5056808;28;20033;-20
2023/12/25 05:22:19;;;;;;;2.00;1.90;;;;;;;;;;5056698;28;20105;-19
2023/12/25 05:24:45;;;;;;;2.78;2.33;;;;;;;;;;5056682;28;20429;-20
2023/12/25 05:27:11;;;;;;;2.05;1.83;;;;;;;;;;5056686;28;20032;-19
2023/12/25 05:29:38;;;;;;;1.85;1.75;;;;;;;;;;5056826;28;20036;-19
2023/12/25 05:32:04;;;;;;;1.92;1.83;;;;;;;;;;5056527;28;20032;-24
2023/12/25 05:34:31;;;;;;;1.85;1.75;;;;;;;;;;5056776;28;20159;-22
2023/12/25 05:36:57;;;;;;;1.95;1.85;;;;;;;;;;5056374;28;20458;-19
2023/12/25 05:39:24;;;;;;;1.80;1.70;;;;;;;;;;5056336;28;20025;-22
2023/12/25 05:41:51;;;;;;;2.40;2.20;;;;;;;;;;5056319;28;20013;-21
2023/12/25 05:44:17;;;;;;;2.15;1.95;;;;;;;;;;5056367;28;20017;-20
2023/12/25 05:46:43;;;;;;;2.13;2.03;;;;;;;;;;5056290;28;20096;-21
2023/12/25 05:49:09;;;;;;;1.88;1.77;;;;;;;;;;5056280;28;20426;-18
2023/12/25 05:51:35;;;;;;;1.77;1.67;;;;;;;;;;5056105;28;20032;-17
2023/12/25 05:54:02;;;;;;;1.67;1.58;;;;;;;;;;5056090;28;20040;-20
2023/12/25 05:56:28;;;;;;;1.67;1.58;;;;;;;;;;5056622;28;20029;-20
2023/12/25 05:58:54;;;;;;;1.90;1.80;;;;;;;;;;5056079;28;20049;-19
2023/12/25 06:03:57;;;;;;;2.47;2.38;;;;;;;;;;5131327;22;20061;-23
2023/12/25 06:06:23;;;;;;;1.90;1.80;;;;;;;;;;5056018;28;20071;-23
2023/12/25 06:08:49;;;;;;;1.92;1.83;;;;;;;;;;5055958;28;20044;-22
2023/12/25 06:11:15;;;;;;;1.67;1.58;;;;;;;;;;5056138;28;20500;-21
2023/12/25 06:13:42;;;;;;;1.60;1.60;;;;;;;;;;5055995;28;20375;-23
2023/12/25 06:16:08;;;;;;;1.90;1.80;;;;;;;;;;5055788;28;20332;-22
2023/12/25 06:18:34;;;;;;;2.22;2.13;;;;;;;;;;5055731;28;20110;-22
2023/12/25 06:21:01;;;;;;;2.40;2.30;;;;;;;;;;5055946;28;20096;-21
2023/12/25 06:23:27;;;;;;;1.48;1.48;;;;;;;;;;5055540;28;20029;-22
2023/12/25 06:25:53;;;;;;;1.90;1.80;;;;;;;;;;5055582;28;20025;-23
2023/12/25 06:28:19;;;;;;;1.73;1.63;;;;;;;;;;5055838;28;20028;-22
2023/12/25 06:30:45;;;;;;;1.77;1.67;;;;;;;;;;5055659;28;20033;-22
2023/12/25 06:33:11;;;;;;;1.83;1.73;;;;;;;;;;5055406;28;20100;-21
2023/12/25 06:35:37;;;;;;;1.30;1.30;;;;;;;;;;5055637;28;20028;-21
2023/12/25 06:38:04;;;;;;;1.75;1.65;;;;;;;;;;5055372;28;20465;-23
2023/12/25 06:40:30;;;;;;;1.27;1.25;;;;;;;;;;5055826;28;20313;-23
2023/12/25 06:42:56;;;;;;;1.73;1.67;;;;;;;;;;5055239;28;20093;-22
2023/12/25 06:45:22;;;;;;;1.73;1.63;;;;;;;;;;5055494;28;20093;-22
2023/12/25 06:47:48;;;;;;;1.80;1.70;;;;;;;;;;5055468;28;20025;-23
2023/12/25 06:50:14;;;;;;;1.70;1.60;;;;;;;;;;5055085;28;20095;-23
2023/12/25 06:52:40;;;;;;;1.75;1.65;;;;;;;;;;5055029;28;20463;-21
2023/12/25 06:55:08;;;;;;;1.80;1.70;;;;;;;;;;5055034;28;20033;-23
2023/12/25 06:57:34;;;;;;;1.50;1.40;;;;;;;;;;5055233;28;20047;-21
2023/12/25 07:00:00;;;;;;;1.83;1.73;;;;;;;;;;5054016;28;20037;-22
2023/12/25 07:02:26;;;;;;;1.70;1.60;;;;;;;;;;5054622;28;20143;-21
2023/12/25 07:04:52;;;;;;;1.92;1.83;;;;;;;;;;5055481;28;20406;-22
2023/12/25 07:07:19;;;;;;;1.80;1.70;;;;;;;;;;5055088;28;20355;-21
2023/12/25 07:09:45;;;;;;;1.92;1.83;;;;;;;;;;5055044;28;20355;-21
2023/12/25 07:12:11;;;;;;;1.60;1.60;;;;;;;;;;5054995;28;20032;-21
2023/12/25 07:14:38;;;;;;;1.70;1.60;;;;;;;;;;5055012;28;20308;-22
2023/12/25 07:17:07;;;;;;;1.90;1.80;;;;;;;;;;5054717;28;20025;-21
2023/12/25 07:19:34;;;;;;;1.83;1.73;;;;;;;;;;5054908;28;20032;-21
2023/12/25 07:22:01;;;;;;;2.00;1.90;;;;;;;;;;5054847;28;20028;-21
2023/12/25 07:24:27;;;;;;;1.65;1.27;;;;;;;;;;5054619;28;20021;-21
2023/12/25 07:26:53;;;;;;;1.92;1.83;;;;;;;;;;5054580;28;20028;-21
2023/12/25 07:29:20;;;;;;;1.70;1.60;;;;;;;;;;5054887;28;20538;-21
2023/12/25 07:31:46;;;;;;;1.83;1.73;;;;;;;;;;5054683;28;20051;-21
2023/12/25 07:34:12;;;;;;;1.25;1.15;;;;;;;;;;5054534;28;20032;-22
2023/12/25 07:36:38;;;;;;;1.42;1.40;;;;;;;;;;5054534;28;20021;-22
2023/12/25 07:39:05;;;;;;;1.98;1.88;;;;;;;;;;5054436;28;20443;-22
2023/12/25 07:41:31;;;;;;;2.00;1.90;;;;;;;;;;5054412;28;20108;-22
2023/12/25 07:44:00;;;;;;;1.83;1.73;;;;;;;;;;5054382;28;20380;-21
2023/12/25 07:46:26;;;;;;;1.83;1.73;;;;;;;;;;5054660;28;20037;-22
2023/12/25 07:48:53;;;;;;;3.10;1.92;;;;;;;;;;5054639;28;20032;-24
2023/12/25 07:51:19;;;;;;;2.08;1.98;;;;;;;;;;5054815;28;20428;-24
2023/12/25 07:53:46;;;;;;;2.08;1.98;;;;;;;;;;5054260;28;20040;-23
2023/12/25 07:56:12;;;;;;;1.80;1.70;;;;;;;;;;5054384;28;20021;-23
2023/12/25 07:58:39;;;;;;;1.67;1.65;;;;;;;;;;5054590;28;20109;-24
2023/12/25 08:01:05;;;;;;;1.63;1.55;;;;;;;;;;5055697;28;20087;-23
2023/12/25 08:03:31;;;;;;;1.70;1.60;;;;;;;;;;5058075;28;20123;-24
2023/12/25 08:05:57;;;;;;;1.70;1.60;;;;;;;;;;5058239;28;20447;-24
2023/12/25 08:08:23;;;;;;;1.50;1.50;;;;;;;;;;5058208;28;20040;-24
2023/12/25 08:10:49;;;;;;;1.30;1.30;;;;;;;;;;5058093;28;20383;-24
2023/12/25 08:13:18;;;;;;;1.77;1.67;;;;;;;;;;5058305;28;20025;-24
2023/12/25 08:15:44;;;;;;;1.65;1.55;;;;;;;;;;5058287;28;20021;-24
2023/12/25 08:18:11;;;;;;;1.67;1.58;;;;;;;;;;5058272;28;20036;-24
2023/12/25 08:20:37;;;;;;;1.70;1.60;;;;;;;;;;5057957;28;20356;-24
2023/12/25 08:23:03;;;;;;;1.30;1.30;;;;;;;;;;5057834;28;20112;-24
2023/12/25 08:25:29;;;;;;;1.55;1.45;;;;;;;;;;5058406;28;20099;-24
2023/12/25 08:27:55;;;;;;;3.20;1.65;;;;;;;;;;5057806;28;20033;-24
2023/12/25 08:30:21;;;;;;;2.22;2.13;;;;;;;;;;5058018;28;20021;-24
2023/12/25 08:32:47;;;;;;;1.98;1.60;;;;;;;;;;5057654;28;20447;-24
2023/12/25 08:35:14;;;;;;;1.60;1.50;;;;;;;;;;5057685;28;20090;-24
2023/12/25 08:37:40;;;;;;;1.40;1.35;;;;;;;;;;5057548;28;20021;-24
2023/12/25 08:40:07;;;;;;;1.23;1.23;;;;;;;;;;5057605;28;20025;-24
2023/12/25 08:42:33;;;;;;;1.50;1.40;;;;;;;;;;5057863;28;20372;-24
2023/12/25 08:44:59;;;;;;;1.50;1.45;;;;;;;;;;5057761;28;20033;-24
2023/12/25 08:47:26;;;;;;;2.00;1.90;;;;;;;;;;5057391;28;20033;-24
2023/12/25 08:49:53;;;;;;;1.60;1.50;;;;;;;;;;5057622;28;20025;-24
2023/12/25 08:52:20;;;;;;;1.75;1.65;;;;;;;;;;5057253;28;20025;-25
2023/12/25 08:54:46;;;;;;;1.92;1.83;;;;;;;;;;5057268;28;20036;-24
2023/12/25 08:57:12;;;;;;;1.65;1.55;;;;;;;;;;5057257;28;20112;-25
2023/12/25 08:59:38;;;;;;;1.77;1.67;;;;;;;;;;5057221;28;20351;-25
2023/12/25 09:02:04;;;;;;;1.80;1.70;;;;;;;;;;5057345;28;20017;-25
2023/12/25 09:04:30;;;;;;;1.63;1.52;;;;;;;;;;5056999;28;20048;-25
2023/12/25 09:06:56;;;;;;;1.70;1.60;;;;;;;;;;5057064;28;20452;-24
2023/12/25 09:09:23;;;;;;;2.05;1.92;;;;;;;;;;5057034;28;20087;-25
2023/12/25 09:11:49;;;;;;;1.92;1.83;;;;;;;;;;5055283;28;20053;-25
2023/12/25 09:14:15;;;;;;;1.65;1.55;;;;;;;;;;5056662;28;20092;-24
2023/12/25 09:16:42;;;;;;;2.80;2.65;;;;;;;;;;5056900;28;20025;-25
2023/12/25 09:19:08;;;;;;;1.80;1.75;;;;;;;;;;5057122;28;20325;-25
2023/12/25 09:21:38;;;;;;;2.35;1.60;;;;;;;;;;5057331;28;20399;-24
2023/12/25 09:24:04;;;;;;;2.42;2.25;;;;;;;;;;5056771;28;20452;-25
2023/12/25 09:26:30;;;;;;;1.38;1.38;;;;;;;;;;5056732;28;20028;-25
2023/12/25 09:28:57;;;;;;;1.77;1.67;;;;;;;;;;5056713;28;20419;-25
2023/12/25 09:31:23;;;;;;;1.63;1.52;;;;;;;;;;5056797;28;20029;-24
2023/12/25 09:33:49;;;;;;;2.55;1.50;;;;;;;;;;5056513;28;20379;-25
2023/12/25 09:36:15;;;;;;;2.00;1.90;;;;;;;;;;5057115;28;20028;-25
2023/12/25 09:38:41;;;;;;;1.85;1.75;;;;;;;;;;5056760;28;20439;-24
2023/12/25 09:41:09;;;;;;;1.48;1.45;;;;;;;;;;5056736;28;20037;-24
2023/12/25 09:43:39;;;;;;;1.60;1.50;;;;;;;;;;5055369;28;20029;-24
2023/12/25 09:46:05;;;;;;;1.58;1.48;;;;;;;;;;5056403;28;20032;-24
2023/12/25 09:48:31;;;;;;;1.80;1.70;;;;;;;;;;5056577;28;20036;-25
2023/12/25 09:50:58;;;;;;;1.67;1.58;;;;;;;;;;5056515;28;20068;-24
2023/12/25 09:53:24;;;;;;;1.80;1.70;;;;;;;;;;5056437;28;20025;-25
2023/12/25 09:55:51;;;;;;;1.60;1.50;;;;;;;;;;5056159;28;20025;-24
2023/12/25 09:58:17;;;;;;;2.05;1.95;;;;;;;;;;5056186;28;20029;-25
2023/12/25 10:00:43;;;;;;;1.70;1.60;;;;;;;;;;5056087;28;20107;-25
2023/12/25 10:03:10;;;;;;;1.30;1.30;;;;;;;;;;5055954;28;20059;-25
2023/12/25 10:05:36;;;;;;;2.15;1.83;;;;;;;;;;5056230;28;20044;-25
2023/12/25 10:08:03;;;;;;;1.50;1.50;;;;;;;;;;5056187;28;20463;-24
2023/12/25 10:10:29;;;;;;;1.77;1.67;;;;;;;;;;5055809;28;20037;-24
2023/12/25 10:12:57;;;;;;;1.48;1.38;;;;;;;;;;5055819;28;20088;-24
2023/12/25 10:15:23;;;;;;;1.65;1.55;;;;;;;;;;5054826;28;20333;-25
2023/12/25 10:18:00;;;;;;;2.03;1.92;;;;;;;;;;5055720;28;20025;-24
2023/12/25 10:20:26;;;;;;;2.00;1.90;;;;;;;;;;5055977;28;20032;-25
2023/12/25 10:22:52;;;;;;;1.42;1.42;;;;;;;;;;5055561;28;20029;-25
2023/12/25 10:25:18;;;;;;;1.30;1.27;;;;;;;;;;5055338;28;20082;-25
2023/12/25 10:27:45;;;;;;;1.70;1.60;;;;;;;;;;5055474;28;20025;-24
2023/12/25 10:30:19;;;;;;;1.70;1.60;;;;;;;;;;5055394;28;20036;-25
2023/12/25 10:32:46;;;;;;;1.80;1.65;;;;;;;;;;5055557;28;20083;-24
2023/12/25 10:35:20;;;;;;;1.63;1.52;;;;;;;;;;5055434;28;20025;-24
2023/12/25 10:37:46;;;;;;;2.42;2.00;;;;;;;;;;5055664;28;20402;-24
2023/12/25 10:40:20;;;;;;;1.52;1.42;;;;;;;;;;5055626;28;20438;-25
2023/12/25 10:42:50;;;;;;;1.70;1.60;;;;;;;;;;5055462;28;20055;-24
2023/12/25 10:45:22;;;;;;;1.65;1.55;;;;;;;;;;5055548;28;20340;-25
2023/12/25 10:47:58;;;;;;;1.60;1.50;;;;;;;;;;5055946;28;20032;-25
2023/12/25 10:50:25;;;;;;;1.75;1.65;;;;;;;;;;5055049;28;20020;-25
2023/12/25 10:52:52;;;;;;;1.63;1.52;;;;;;;;;;5055046;28;20029;-24
2023/12/25 10:55:28;;;;;;;2.00;1.90;;;;;;;;;;5055104;28;20079;-24
2023/12/25 10:57:55;;;;;;;1.70;1.60;;;;;;;;;;5055047;28;20092;-25
2023/12/25 11:00:22;;;;;;;1.40;1.40;;;;;;;;;;5054995;28;20048;-24
2023/12/25 11:02:52;;;;;;;1.35;1.35;;;;;;;;;;5054585;28;20495;-24
2023/12/25 11:05:20;;;;;;;1.50;1.40;;;;;;;;;;5054931;28;20031;-24
2023/12/25 11:07:46;;;;;;;1.70;1.60;;;;;;;;;;5054782;28;20075;-25
2023/12/25 11:10:13;;;;;;;1.70;1.60;;;;;;;;;;5054789;28;20355;-24
2023/12/25 11:12:40;;;;;;;1.42;1.40;;;;;;;;;;5054981;28;20036;-25
2023/12/25 11:15:06;;;;;;;1.50;1.40;;;;;;;;;;5054746;28;20036;-24
2023/12/25 11:17:35;;;;;;;1.70;1.60;;;;;;;;;;5054999;28;20025;-25
2023/12/25 11:20:04;;;;;;;1.88;1.77;;;;;;;;;;5054691;28;20108;-25
2023/12/25 11:22:31;;;;;;;1.73;1.63;;;;;;;;;;5054840;28;20054;-25
2023/12/25 11:24:57;;;;;;;1.45;1.45;;;;;;;;;;5054596;28;20025;-25
2023/12/25 11:27:26;;;;;;;1.70;1.60;;;;;;;;;;5054613;28;20025;-24
2023/12/25 11:29:59;;;;;;;1.90;1.80;;;;;;;;;;5054726;28;22007;-25
2023/12/25 11:32:25;;;;;;;1.40;1.40;;;;;;;;;;5054750;28;20096;-25
2023/12/25 11:34:52;;;;;;;1.73;1.63;;;;;;;;;;5054736;28;20201;-24
2023/12/25 11:37:19;;;;;;;1.77;1.67;;;;;;;;;;5054130;28;20112;-24
2023/12/25 11:40:07;;;;;;;1.52;1.45;;;;;;;;;;5054767;28;20029;-24
2023/12/25 11:42:35;;;;;;;2.00;1.90;;;;;;;;;;5054368;28;20032;-25
2023/12/25 11:45:06;;;;;;;2.22;2.08;;;;;;;;;;5054710;28;20025;-25
2023/12/25 11:47:39;;;;;;;1.40;1.30;;;;;;;;;;5054428;28;20024;-25
2023/12/25 11:50:06;;;;;;;2.20;1.35;;;;;;;;;;5054575;28;20365;-25
2023/12/25 11:52:44;;;;;;;1.67;1.58;;;;;;;;;;5054303;28;20356;-25
2023/12/25 11:55:13;;;;;;;1.50;1.50;;;;;;;;;;5054353;28;20079;-25
2023/12/25 11:57:42;;;;;;;1.42;1.33;;;;;;;;;;5054840;28;20428;-24
2023/12/25 12:00:15;;;;;;;1.58;1.48;;;;;;;;;;5054569;28;20059;-25
2023/12/25 12:02:41;;;;;;;1.30;1.30;;;;;;;;;;5054307;28;20052;-25
2023/12/25 12:05:07;;;;;;;1.80;1.70;;;;;;;;;;5054271;28;20444;-25
2023/12/25 12:07:34;;;;;;;1.40;1.30;;;;;;;;;;5054451;28;20032;-24
2023/12/25 12:10:00;;;;;;;1.52;1.50;;;;;;;;;;5054452;28;20067;-25
2023/12/25 12:12:27;;;;;;;1.60;1.50;;;;;;;;;;5054134;28;20104;-24
2023/12/25 12:14:53;;;;;;;1.63;1.52;;;;;;;;;;5054419;28;20353;-25
2023/12/25 12:17:20;;;;;;;1.50;1.48;;;;;;;;;;5054076;28;20020;-34
2023/12/25 12:19:46;;;;;;;1.70;1.60;;;;;;;;;;5054022;28;20091;-25
2023/12/25 12:22:13;;;;;;;1.33;1.33;;;;;;;;;;5054004;28;20079;-25
2023/12/25 12:24:39;;;;;;;1.45;1.45;;;;;;;;;;5054008;28;20017;-25
2023/12/25 12:27:08;;;;;;;1.80;1.70;;;;;;;;;;5053992;28;20025;-25
2023/12/25 12:29:34;;;;;;;1.80;1.70;;;;;;;;;;5054284;28;20340;-26
2023/12/25 12:32:01;;;;;;;1.58;1.48;;;;;;;;;;5053982;28;20029;-25
2023/12/25 12:34:28;;;;;;;1.77;1.67;;;;;;;;;;5054000;28;20056;-25
2023/12/25 12:37:02;;;;;;;1.60;1.50;;;;;;;;;;5053961;28;20025;-25
2023/12/25 12:39:30;;;;;;;1.90;1.80;;;;;;;;;;5054242;28;20032;-25
2023/12/25 12:41:57;;;;;;;1.58;1.58;;;;;;;;;;5053837;28;20057;-25
2023/12/25 12:44:23;;;;;;;1.40;1.40;;;;;;;;;;5054177;28;20033;-25
2023/12/25 12:46:50;;;;;;;2.25;1.80;;;;;;;;;;5054749;28;20078;-25
2023/12/25 12:49:16;;;;;;;1.65;1.55;;;;;;;;;;5057475;28;20033;-25
2023/12/25 12:51:42;;;;;;;2.08;1.98;;;;;;;;;;5057251;28;20041;-25
2023/12/25 12:54:08;;;;;;;1.67;1.58;;;;;;;;;;5057379;28;20017;-25
2023/12/25 12:56:34;;;;;;;1.67;1.58;;;;;;;;;;5057299;28;20029;-25
2023/12/25 12:59:01;;;;;;;1.90;1.80;;;;;;;;;;5057805;28;20321;-25
2023/12/25 13:01:31;;;;;;;1.42;1.42;;;;;;;;;;5057753;28;20029;-25
2023/12/25 13:03:58;;;;;;;1.40;1.40;;;;;;;;;;5056805;28;20048;-25
2023/12/25 13:06:27;;;;;;;1.25;1.25;;;;;;;;;;5057139;28;20359;-25
2023/12/25 13:08:53;;;;;;;2.10;2.00;;;;;;;;;;5057048;28;20033;-25
2023/12/25 13:11:22;;;;;;;1.95;1.85;;;;;;;;;;5057000;28;20079;-25
2023/12/25 13:13:48;;;;;;;1.95;1.85;;;;;;;;;;5056901;28;20028;-25
2023/12/25 13:16:15;;;;;;;1.75;1.65;;;;;;;;;;5057214;28;20028;-25
2023/12/25 13:18:42;;;;;;;1.35;1.35;;;;;;;;;;5057184;28;20074;-25
2023/12/25 13:21:08;;;;;;;1.88;1.77;;;;;;;;;;5056858;28;20104;-25
2023/12/25 13:23:38;;;;;;;2.15;2.05;;;;;;;;;;5056706;28;20033;-25
2023/12/25 13:26:04;;;;;;;1.88;1.77;;;;;;;;;;5057056;28;20109;-25
2023/12/25 13:28:30;;;;;;;1.52;1.52;;;;;;;;;;5056676;28;20028;-25
2023/12/25 13:30:57;;;;;;;1.88;1.77;;;;;;;;;;5022753;28;20048;-25
2023/12/25 13:33:23;;;;;;;1.83;1.75;;;;;;;;;;5056571;28;20100;-25
2023/12/25 13:35:49;;;;;;;1.60;1.50;;;;;;;;;;5056567;28;20329;-25
2023/12/25 13:38:15;;;;;;;2.08;1.98;;;;;;;;;;5056518;28;20029;-25
2023/12/25 13:40:42;;;;;;;1.73;1.63;;;;;;;;;;5056549;28;20021;-25
2023/12/25 13:43:08;;;;;;;1.70;1.60;;;;;;;;;;5056652;28;20025;-25
2023/12/25 13:45:34;;;;;;;1.88;1.77;;;;;;;;;;5056927;28;20064;-26
2023/12/25 13:48:01;;;;;;;1.95;1.85;;;;;;;;;;5056378;28;20029;-25
2023/12/25 13:50:27;;;;;;;1.65;1.55;;;;;;;;;;5056495;28;20351;-25
2023/12/25 13:52:53;;;;;;;1.92;1.83;;;;;;;;;;5055202;28;20025;-25
2023/12/25 13:55:19;;;;;;;1.90;1.80;;;;;;;;;;5056772;28;20021;-25
2023/12/25 13:57:46;;;;;;;2.03;1.92;;;;;;;;;;5056068;28;20100;-25
2023/12/25 14:00:13;;;;;;;2.22;2.13;;;;;;;;;;5055603;28;20408;-25
2023/12/25 14:02:39;;;;;;;1.35;1.35;;;;;;;;;;5056064;28;20036;-25
2023/12/25 14:05:06;;;;;;;1.80;1.70;;;;;;;;;;5056591;28;20037;-25
2023/12/25 14:07:32;;;;;;;1.70;1.60;;;;;;;;;;5056748;28;20029;-25
2023/12/25 14:09:59;;;;;;;2.20;2.10;;;;;;;;;;5055863;28;20036;-25
2023/12/25 14:12:25;;;;;;;2.42;2.25;;;;;;;;;;5055792;28;20025;-25
2023/12/25 14:14:51;;;;;;;1.80;1.70;;;;;;;;;;5055866;28;20020;-25
2023/12/25 14:17:19;;;;;;;2.22;2.13;;;;;;;;;;5055697;28;20052;-25
2023/12/25 14:19:45;;;;;;;2.20;2.10;;;;;;;;;;5055973;28;20055;-25
2023/12/25 14:22:12;;;;;;;1.98;1.88;;;;;;;;;;5055613;28;20028;-25
2023/12/25 14:24:38;;;;;;;1.73;1.63;;;;;;;;;;5055878;28;20025;-25
2023/12/25 14:27:05;;;;;;;1.80;1.70;;;;;;;;;;5055542;28;20029;-25
2023/12/25 14:29:32;;;;;;;1.90;1.80;;;;;;;;;;5055475;28;20033;-25
2023/12/25 14:31:58;;;;;;;1.90;1.80;;;;;;;;;;5055588;28;20039;-25
2023/12/25 14:34:24;;;;;;;2.10;2.00;;;;;;;;;;5055440;28;20036;-25
2023/12/25 14:36:51;;;;;;;1.75;1.65;;;;;;;;;;5055395;28;20113;-25
2023/12/25 14:39:17;;;;;;;1.95;1.85;;;;;;;;;;5055380;28;20021;-25
2023/12/25 14:41:43;;;;;;;1.92;1.83;;;;;;;;;;5055514;28;20025;-25
2023/12/25 14:44:09;;;;;;;1.90;1.80;;;;;;;;;;5055248;28;20114;-25